GAP2923 RPLL-RPLK
Flight info
| Callsign | GAP2923 |
|---|---|
| Flight time | 0h 37m |
| Altitude | 23000 |
| Route | TIMON2R TIMON W15 RAGAY RAGAY1B |
| Aircraft | A320/M-SDE3FGHIRWY/LB1 |
Departure
| Time | 2026-05-06 15:10 |
|---|---|
| Airport | Ninoy Aquino International Airport (RPLL) |
Arrival
| Time | 2026-05-06 15:47 |
|---|---|
| Airport | Bicol International Airport (RPLK) |
| Time | Latitude | Longitude | Altitude | Speed | Heading |
|---|---|---|---|---|---|
| 2026-05-06 14:42 | 14.51064 | 121.01359 | 69 ft | 0 kts | 220° |
| 2026-05-06 14:52 | 14.51071 | 121.01365 | 69 ft | 4 kts | 220° |
| 2026-05-06 14:52 | 14.51092 | 121.01383 | 59 ft | 4 kts | 219° |
| 2026-05-06 14:52 | 14.51112 | 121.01400 | 59 ft | 4 kts | 212° |
| 2026-05-06 14:53 | 14.51128 | 121.01408 | 66 ft | 2 kts | 181° |
| 2026-05-06 14:53 | 14.51139 | 121.01407 | 62 ft | 2 kts | 148° |
| 2026-05-06 14:53 | 14.51148 | 121.01400 | 66 ft | 2 kts | 137° |
| 2026-05-06 14:53 | 14.51157 | 121.01393 | 67 ft | 1 kts | 135° |
| 2026-05-06 14:54 | 14.51157 | 121.01392 | 59 ft | 0 kts | 135° |
| 2026-05-06 14:56 | 14.51154 | 121.01395 | 66 ft | 3 kts | 135° |
| 2026-05-06 14:56 | 14.51114 | 121.01435 | 63 ft | 10 kts | 135° |
| 2026-05-06 14:56 | 14.51060 | 121.01493 | 62 ft | 12 kts | 131° |
| 2026-05-06 14:56 | 14.50998 | 121.01556 | 64 ft | 12 kts | 135° |
| 2026-05-06 14:57 | 14.50944 | 121.01613 | 64 ft | 10 kts | 135° |
| 2026-05-06 14:57 | 14.50939 | 121.01618 | 68 ft | 0 kts | 135° |
| 2026-05-06 15:00 | 14.50934 | 121.01623 | 68 ft | 5 kts | 135° |
| 2026-05-06 15:00 | 14.50879 | 121.01665 | 65 ft | 11 kts | 176° |
| 2026-05-06 15:00 | 14.50834 | 121.01616 | 68 ft | 9 kts | 242° |
| 2026-05-06 15:01 | 14.50805 | 121.01564 | 66 ft | 9 kts | 239° |
| 2026-05-06 15:01 | 14.50757 | 121.01478 | 63 ft | 16 kts | 241° |
| 2026-05-06 15:01 | 14.50706 | 121.01387 | 65 ft | 14 kts | 240° |
| 2026-05-06 15:01 | 14.50662 | 121.01309 | 66 ft | 13 kts | 240° |
| 2026-05-06 15:02 | 14.50609 | 121.01214 | 63 ft | 19 kts | 240° |
| 2026-05-06 15:02 | 14.50531 | 121.01072 | 66 ft | 26 kts | 240° |
| 2026-05-06 15:02 | 14.50435 | 121.00900 | 64 ft | 29 kts | 240° |
| 2026-05-06 15:02 | 14.50334 | 121.00720 | 63 ft | 29 kts | 240° |
| 2026-05-06 15:03 | 14.50234 | 121.00538 | 64 ft | 29 kts | 240° |
| 2026-05-06 15:03 | 14.50136 | 121.00359 | 64 ft | 28 kts | 240° |
| 2026-05-06 15:03 | 14.50040 | 121.00190 | 68 ft | 23 kts | 240° |
| 2026-05-06 15:03 | 14.49977 | 121.00075 | 62 ft | 15 kts | 241° |
| 2026-05-06 15:04 | 14.49931 | 120.99991 | 67 ft | 12 kts | 239° |
| 2026-05-06 15:04 | 14.49889 | 120.99959 | 69 ft | 5 kts | 183° |
| 2026-05-06 15:04 | 14.49875 | 120.99965 | 67 ft | 0 kts | 151° |
| 2026-05-06 15:07 | 14.49842 | 120.99984 | 66 ft | 9 kts | 151° |
| 2026-05-06 15:07 | 14.49797 | 121.00022 | 67 ft | 8 kts | 94° |
| 2026-05-06 15:07 | 14.49811 | 121.00052 | 63 ft | 2 kts | 60° |
| 2026-05-06 15:07 | 14.49811 | 121.00053 | 63 ft | 0 kts | 60° |
| 2026-05-06 15:09 | 14.49816 | 121.00062 | 69 ft | 9 kts | 60° |
| 2026-05-06 15:09 | 14.49969 | 121.00343 | 63 ft | 81 kts | 60° |
| 2026-05-06 15:09 | 14.50352 | 121.01028 | 69 ft | 137 kts | 60° |
| 2026-05-06 15:09 | 14.50904 | 121.02019 | 170 ft | 172 kts | 62° |
| 2026-05-06 15:10 | 14.51521 | 121.03113 | 761 ft | 180 kts | 61° |
| 2026-05-06 15:10 | 14.52158 | 121.04211 | 1483 ft | 177 kts | 59° |
| 2026-05-06 15:10 | 14.52801 | 121.05333 | 1930 ft | 191 kts | 59° |
| 2026-05-06 15:10 | 14.53514 | 121.06593 | 2156 ft | 216 kts | 60° |
| 2026-05-06 15:11 | 14.54316 | 121.08014 | 2494 ft | 241 kts | 59° |
| 2026-05-06 15:11 | 14.55086 | 121.09613 | 3052 ft | 253 kts | 75° |
| 2026-05-06 15:11 | 14.55120 | 121.11439 | 3769 ft | 261 kts | 103° |
| 2026-05-06 15:11 | 14.54426 | 121.13165 | 4527 ft | 267 kts | 116° |
| 2026-05-06 15:12 | 14.53565 | 121.14874 | 5299 ft | 270 kts | 117° |
| 2026-05-06 15:12 | 14.52678 | 121.16601 | 6057 ft | 274 kts | 117° |
| 2026-05-06 15:12 | 14.51777 | 121.18350 | 6795 ft | 278 kts | 117° |
| 2026-05-06 15:12 | 14.50859 | 121.20114 | 7516 ft | 280 kts | 117° |
| 2026-05-06 15:13 | 14.49926 | 121.21893 | 8265 ft | 283 kts | 117° |
| 2026-05-06 15:13 | 14.48975 | 121.23687 | 9025 ft | 286 kts | 117° |
| 2026-05-06 15:13 | 14.48002 | 121.25488 | 9782 ft | 288 kts | 117° |
| 2026-05-06 15:13 | 14.46980 | 121.27294 | 10303 ft | 299 kts | 119° |
| 2026-05-06 15:14 | 14.45835 | 121.29185 | 10441 ft | 322 kts | 121° |
| 2026-05-06 15:14 | 14.44589 | 121.31173 | 10791 ft | 335 kts | 121° |
| 2026-05-06 15:14 | 14.43303 | 121.33202 | 11365 ft | 340 kts | 121° |
| 2026-05-06 15:14 | 14.42005 | 121.35251 | 11982 ft | 343 kts | 121° |
| 2026-05-06 15:15 | 14.40700 | 121.37320 | 12605 ft | 346 kts | 121° |
| 2026-05-06 15:15 | 14.39386 | 121.39410 | 13225 ft | 349 kts | 121° |
| 2026-05-06 15:15 | 14.38079 | 121.41494 | 13827 ft | 351 kts | 121° |
| 2026-05-06 15:15 | 14.36752 | 121.43618 | 14337 ft | 354 kts | 121° |
| 2026-05-06 15:16 | 14.35415 | 121.45765 | 14842 ft | 357 kts | 121° |
| 2026-05-06 15:16 | 14.34070 | 121.47925 | 15342 ft | 360 kts | 121° |
| 2026-05-06 15:16 | 14.32712 | 121.50108 | 15848 ft | 363 kts | 121° |
| 2026-05-06 15:16 | 14.31337 | 121.52312 | 16335 ft | 366 kts | 121° |
| 2026-05-06 15:17 | 14.29947 | 121.54538 | 16798 ft | 370 kts | 122° |
| 2026-05-06 15:17 | 14.28559 | 121.56758 | 17262 ft | 374 kts | 122° |
| 2026-05-06 15:17 | 14.27142 | 121.59025 | 17734 ft | 378 kts | 122° |
| 2026-05-06 15:17 | 14.25710 | 121.61314 | 18171 ft | 382 kts | 122° |
| 2026-05-06 15:18 | 14.24266 | 121.63621 | 18572 ft | 385 kts | 122° |
| 2026-05-06 15:18 | 14.22812 | 121.65950 | 18995 ft | 388 kts | 122° |
| 2026-05-06 15:18 | 14.21348 | 121.68292 | 19421 ft | 390 kts | 122° |
| 2026-05-06 15:18 | 14.19870 | 121.70654 | 19861 ft | 393 kts | 122° |
| 2026-05-06 15:19 | 14.18383 | 121.73028 | 20310 ft | 396 kts | 122° |
| 2026-05-06 15:19 | 14.16886 | 121.75417 | 20740 ft | 398 kts | 122° |
| 2026-05-06 15:19 | 14.15384 | 121.77818 | 21163 ft | 401 kts | 122° |
| 2026-05-06 15:19 | 14.13867 | 121.80243 | 21590 ft | 403 kts | 122° |
| 2026-05-06 15:20 | 14.12341 | 121.82684 | 22014 ft | 406 kts | 122° |
| 2026-05-06 15:20 | 14.10805 | 121.85137 | 22436 ft | 409 kts | 122° |
| 2026-05-06 15:20 | 14.09258 | 121.87599 | 22819 ft | 412 kts | 122° |
| 2026-05-06 15:20 | 14.07697 | 121.90083 | 22925 ft | 409 kts | 122° |
| 2026-05-06 15:21 | 14.06175 | 121.92509 | 22947 ft | 401 kts | 122° |
| 2026-05-06 15:21 | 14.04757 | 121.94965 | 22944 ft | 398 kts | 116° |
| 2026-05-06 15:21 | 14.03497 | 121.97502 | 22948 ft | 397 kts | 116° |
| 2026-05-06 15:21 | 14.02255 | 122.00000 | 22944 ft | 397 kts | 116° |
| 2026-05-06 15:22 | 14.00996 | 122.02530 | 22952 ft | 397 kts | 116° |
| 2026-05-06 15:22 | 13.99736 | 122.05057 | 22942 ft | 397 kts | 116° |
| 2026-05-06 15:22 | 13.98473 | 122.07581 | 22941 ft | 397 kts | 116° |
| 2026-05-06 15:22 | 13.97203 | 122.10106 | 22941 ft | 397 kts | 116° |
| 2026-05-06 15:23 | 13.95932 | 122.12629 | 22938 ft | 397 kts | 116° |
| 2026-05-06 15:23 | 13.94666 | 122.15152 | 22939 ft | 397 kts | 116° |
| 2026-05-06 15:23 | 13.93406 | 122.17678 | 22815 ft | 393 kts | 116° |
| 2026-05-06 15:23 | 13.92172 | 122.20151 | 22565 ft | 384 kts | 116° |
| 2026-05-06 15:24 | 13.90962 | 122.22568 | 22317 ft | 376 kts | 116° |
| 2026-05-06 15:25 | 13.86308 | 122.31849 | 21116 ft | 362 kts | 117° |
| 2026-05-06 15:25 | 13.85157 | 122.34149 | 20656 ft | 361 kts | 116° |
| 2026-05-06 15:25 | 13.84007 | 122.36446 | 20213 ft | 361 kts | 116° |
| 2026-05-06 15:25 | 13.82859 | 122.38737 | 19765 ft | 360 kts | 116° |
| 2026-05-06 15:26 | 13.81708 | 122.41029 | 19322 ft | 360 kts | 117° |
| 2026-05-06 15:26 | 13.80573 | 122.43284 | 18881 ft | 360 kts | 117° |
| 2026-05-06 15:26 | 13.79409 | 122.45596 | 18433 ft | 360 kts | 116° |
| 2026-05-06 15:26 | 13.78277 | 122.47853 | 17970 ft | 360 kts | 116° |
| 2026-05-06 15:27 | 13.77135 | 122.50133 | 17519 ft | 358 kts | 116° |
| 2026-05-06 15:27 | 13.75996 | 122.52406 | 17082 ft | 356 kts | 116° |
| 2026-05-06 15:27 | 13.74862 | 122.54664 | 16663 ft | 354 kts | 116° |
| 2026-05-06 15:27 | 13.73730 | 122.56911 | 16228 ft | 352 kts | 117° |
| 2026-05-06 15:28 | 13.72496 | 122.59075 | 15818 ft | 351 kts | 126° |
| 2026-05-06 15:28 | 13.71046 | 122.61051 | 15603 ft | 343 kts | 126° |
| 2026-05-06 15:28 | 13.69628 | 122.62993 | 15364 ft | 336 kts | 126° |
| 2026-05-06 15:28 | 13.68239 | 122.64905 | 15119 ft | 330 kts | 126° |
| 2026-05-06 15:29 | 13.66880 | 122.66785 | 14874 ft | 326 kts | 126° |
| 2026-05-06 15:29 | 13.65537 | 122.68647 | 14649 ft | 323 kts | 126° |
| 2026-05-06 15:29 | 13.64198 | 122.70500 | 14413 ft | 322 kts | 126° |
| 2026-05-06 15:29 | 13.62863 | 122.72346 | 14175 ft | 321 kts | 126° |
| 2026-05-06 15:30 | 13.61546 | 122.74165 | 13953 ft | 320 kts | 126° |
| 2026-05-06 15:30 | 13.60220 | 122.75994 | 13715 ft | 319 kts | 126° |
| 2026-05-06 15:30 | 13.58896 | 122.77817 | 13467 ft | 317 kts | 125° |
| 2026-05-06 15:30 | 13.57577 | 122.79633 | 13232 ft | 317 kts | 126° |
| 2026-05-06 15:31 | 13.56264 | 122.81437 | 13005 ft | 315 kts | 126° |
| 2026-05-06 15:31 | 13.54950 | 122.83243 | 12784 ft | 315 kts | 126° |
| 2026-05-06 15:31 | 13.53642 | 122.85042 | 12553 ft | 314 kts | 126° |
| 2026-05-06 15:32 | 13.51036 | 122.88623 | 12100 ft | 312 kts | 126° |
| 2026-05-06 15:32 | 13.49738 | 122.90404 | 11874 ft | 311 kts | 126° |
| 2026-05-06 15:32 | 13.48442 | 122.92182 | 11658 ft | 310 kts | 126° |
| 2026-05-06 15:32 | 13.47170 | 122.93931 | 11427 ft | 309 kts | 126° |
| 2026-05-06 15:33 | 13.45886 | 122.95698 | 11203 ft | 308 kts | 126° |
| 2026-05-06 15:33 | 13.44606 | 122.97459 | 10978 ft | 308 kts | 125° |
| 2026-05-06 15:33 | 13.43329 | 122.99215 | 10758 ft | 307 kts | 125° |
| 2026-05-06 15:33 | 13.42051 | 123.00972 | 10534 ft | 306 kts | 125° |
| 2026-05-06 15:34 | 13.40779 | 123.02720 | 10316 ft | 305 kts | 125° |
| 2026-05-06 15:34 | 13.39518 | 123.04449 | 10101 ft | 299 kts | 126° |
| 2026-05-06 15:34 | 13.38281 | 123.06145 | 9868 ft | 294 kts | 125° |
| 2026-05-06 15:34 | 13.37057 | 123.07824 | 9650 ft | 292 kts | 126° |
| 2026-05-06 15:35 | 13.35838 | 123.09489 | 9443 ft | 291 kts | 125° |
| 2026-05-06 15:35 | 13.34625 | 123.11146 | 9222 ft | 290 kts | 125° |
| 2026-05-06 15:35 | 13.33415 | 123.12799 | 9018 ft | 289 kts | 125° |
| 2026-05-06 15:35 | 13.32216 | 123.14444 | 8810 ft | 288 kts | 125° |
| 2026-05-06 15:36 | 13.31034 | 123.16063 | 8607 ft | 287 kts | 125° |
| 2026-05-06 15:36 | 13.29841 | 123.17693 | 8397 ft | 285 kts | 125° |
| 2026-05-06 15:36 | 13.28651 | 123.19316 | 8188 ft | 284 kts | 125° |
| 2026-05-06 15:36 | 13.27459 | 123.20935 | 7979 ft | 283 kts | 126° |
| 2026-05-06 15:37 | 13.26128 | 123.22424 | 7767 ft | 283 kts | 132° |
| 2026-05-06 15:37 | 13.24752 | 123.23872 | 7561 ft | 282 kts | 132° |
| 2026-05-06 15:37 | 13.23390 | 123.25308 | 7347 ft | 281 kts | 132° |
| 2026-05-06 15:37 | 13.22930 | 123.25794 | 7277 ft | 280 kts | 132° |
| 2026-05-06 15:38 | 13.22254 | 123.26507 | 7202 ft | 279 kts | 132° |
| 2026-05-06 15:38 | 13.20899 | 123.27937 | 6966 ft | 279 kts | 132° |
| 2026-05-06 15:38 | 13.19551 | 123.29358 | 6755 ft | 278 kts | 132° |
| 2026-05-06 15:38 | 13.18203 | 123.30776 | 6541 ft | 277 kts | 132° |
| 2026-05-06 15:39 | 13.16858 | 123.32190 | 6337 ft | 276 kts | 132° |
| 2026-05-06 15:39 | 13.15524 | 123.33591 | 6127 ft | 275 kts | 132° |
| 2026-05-06 15:39 | 13.14193 | 123.34993 | 5919 ft | 274 kts | 132° |
| 2026-05-06 15:39 | 13.12864 | 123.36391 | 5714 ft | 273 kts | 132° |
| 2026-05-06 15:40 | 13.11559 | 123.37766 | 5511 ft | 272 kts | 132° |
| 2026-05-06 15:40 | 13.10243 | 123.39153 | 5309 ft | 271 kts | 131° |
| 2026-05-06 15:40 | 13.08932 | 123.40533 | 5101 ft | 270 kts | 131° |
| 2026-05-06 15:40 | 13.07623 | 123.41907 | 4906 ft | 268 kts | 132° |
| 2026-05-06 15:41 | 13.06333 | 123.43261 | 4702 ft | 264 kts | 132° |
| 2026-05-06 15:41 | 13.05060 | 123.44596 | 4506 ft | 258 kts | 132° |
| 2026-05-06 15:41 | 13.03817 | 123.45901 | 4305 ft | 253 kts | 131° |
| 2026-05-06 15:41 | 13.02610 | 123.47166 | 4109 ft | 242 kts | 131° |
| 2026-05-06 15:42 | 13.01451 | 123.48381 | 3926 ft | 234 kts | 131° |
| 2026-05-06 15:42 | 13.00331 | 123.49555 | 3754 ft | 228 kts | 131° |
| 2026-05-06 15:42 | 12.99234 | 123.50713 | 3563 ft | 223 kts | 129° |
| 2026-05-06 15:42 | 12.98510 | 123.52022 | 3396 ft | 205 kts | 98° |
| 2026-05-06 15:43 | 12.98569 | 123.53413 | 3242 ft | 193 kts | 69° |
| 2026-05-06 15:43 | 12.99283 | 123.54567 | 3092 ft | 193 kts | 47° |
| 2026-05-06 15:43 | 13.00200 | 123.55569 | 2938 ft | 192 kts | 48° |
| 2026-05-06 15:43 | 13.01076 | 123.56531 | 2809 ft | 176 kts | 48° |
| 2026-05-06 15:44 | 13.01876 | 123.57407 | 2657 ft | 160 kts | 48° |
| 2026-05-06 15:44 | 13.02602 | 123.58204 | 2539 ft | 147 kts | 48° |
| 2026-05-06 15:44 | 13.03287 | 123.58956 | 2418 ft | 143 kts | 48° |
| 2026-05-06 15:44 | 13.03962 | 123.59699 | 2235 ft | 142 kts | 49° |
| 2026-05-06 15:45 | 13.04630 | 123.60435 | 2033 ft | 140 kts | 48° |
| 2026-05-06 15:45 | 13.05294 | 123.61167 | 1834 ft | 140 kts | 47° |
| 2026-05-06 15:45 | 13.05946 | 123.61886 | 1668 ft | 138 kts | 47° |
| 2026-05-06 15:45 | 13.06602 | 123.62612 | 1480 ft | 139 kts | 49° |
| 2026-05-06 15:46 | 13.07266 | 123.63345 | 1301 ft | 141 kts | 47° |
| 2026-05-06 15:46 | 13.07931 | 123.64079 | 1101 ft | 140 kts | 47° |
| 2026-05-06 15:46 | 13.08596 | 123.64808 | 918 ft | 141 kts | 47° |
| 2026-05-06 15:46 | 13.09263 | 123.65548 | 735 ft | 142 kts | 48° |
| 2026-05-06 15:47 | 13.09933 | 123.66290 | 523 ft | 142 kts | 47° |
| 2026-05-06 15:47 | 13.10601 | 123.67035 | 357 ft | 141 kts | 47° |
| 2026-05-06 15:47 | 13.11240 | 123.67738 | 310 ft | 116 kts | 47° |
| 2026-05-06 15:47 | 13.11587 | 123.68119 | 307 ft | 40 kts | 47° |
| 2026-05-06 15:48 | 13.11701 | 123.68233 | 307 ft | 17 kts | 38° |
| 2026-05-06 15:48 | 13.11748 | 123.68280 | 309 ft | 6 kts | 60° |
| 2026-05-06 15:48 | 13.11741 | 123.68305 | 309 ft | 1 kts | 159° |
| 2026-05-06 15:48 | 13.11734 | 123.68295 | 309 ft | 4 kts | 228° |
| 2026-05-06 15:49 | 13.11704 | 123.68258 | 308 ft | 13 kts | 230° |
| 2026-05-06 15:49 | 13.11618 | 123.68154 | 308 ft | 24 kts | 230° |
| 2026-05-06 15:49 | 13.11525 | 123.68049 | 308 ft | 14 kts | 225° |
| 2026-05-06 15:49 | 13.11463 | 123.68036 | 307 ft | 8 kts | 150° |
| 2026-05-06 15:50 | 13.11416 | 123.68079 | 305 ft | 10 kts | 136° |
| 2026-05-06 15:50 | 13.11350 | 123.68098 | 305 ft | 10 kts | 201° |
| 2026-05-06 15:50 | 13.11308 | 123.68060 | 303 ft | 6 kts | 220° |
| 2026-05-06 15:50 | 13.11274 | 123.68069 | 303 ft | 5 kts | 137° |
| 2026-05-06 15:51 | 13.11248 | 123.68093 | 301 ft | 5 kts | 137° |
| 2026-05-06 15:51 | 13.11233 | 123.68107 | 303 ft | 0 kts | 136° |